createdAt,value
2023-09-27T00:01:27.280Z,21.67
2023-09-27T00:04:30.447Z,21.68
2023-09-27T00:07:33.508Z,21.66
2023-09-27T00:10:37.750Z,21.67
2023-09-27T00:13:40.657Z,21.64
2023-09-27T00:16:43.756Z,21.67
2023-09-27T00:19:46.772Z,21.66
2023-09-27T00:22:50.801Z,21.60
2023-09-27T00:25:55.074Z,21.61
2023-09-27T00:28:57.920Z,21.61
2023-09-27T00:32:00.819Z,21.63
2023-09-27T00:35:05.248Z,21.61
2023-09-27T00:38:09.228Z,21.59
2023-09-27T00:41:13.598Z,21.57
2023-09-27T00:44:16.498Z,21.58
2023-09-27T00:47:19.447Z,21.55
2023-09-27T00:50:22.439Z,21.56
2023-09-27T00:53:26.352Z,21.52
2023-09-27T00:56:30.888Z,21.55
2023-09-27T00:59:34.620Z,21.53
2023-09-27T01:02:37.700Z,21.54
2023-09-27T01:05:40.670Z,21.52
2023-09-27T01:08:43.636Z,21.51
2023-09-27T01:11:49.258Z,21.50
2023-09-27T01:14:52.156Z,21.51
2023-09-27T01:17:55.818Z,21.48
2023-09-27T01:20:58.633Z,21.50
2023-09-27T01:24:02.836Z,21.48
2023-09-27T01:27:07.614Z,21.48
2023-09-27T01:30:11.058Z,21.44
2023-09-27T01:33:14.440Z,21.45
2023-09-27T01:36:17.278Z,21.42
2023-09-27T01:39:21.496Z,21.44
2023-09-27T01:42:24.326Z,21.41
2023-09-27T01:45:27.124Z,21.40
2023-09-27T01:48:30.128Z,21.38
2023-09-27T01:51:32.983Z,21.36
2023-09-27T01:54:37.149Z,21.36
2023-09-27T01:57:40.136Z,21.36
2023-09-27T02:00:42.985Z,21.36
2023-09-27T02:03:45.972Z,21.36
2023-09-27T02:06:48.957Z,21.33
2023-09-27T02:09:53.250Z,21.32
2023-09-27T02:12:56.070Z,21.31
2023-09-27T02:15:58.993Z,21.29
2023-09-27T02:19:05.372Z,21.28
2023-09-27T02:22:09.446Z,21.26
2023-09-27T02:25:14.506Z,21.23
2023-09-27T02:28:17.564Z,21.25
2023-09-27T02:31:20.418Z,21.25
2023-09-27T02:34:23.245Z,21.25
2023-09-27T02:37:26.662Z,21.22
2023-09-27T02:40:30.812Z,21.24
2023-09-27T02:43:33.770Z,21.19
2023-09-27T02:46:36.552Z,21.22
2023-09-27T02:49:39.380Z,21.18
2023-09-27T02:52:42.353Z,21.17
2023-09-27T02:55:46.704Z,21.16
2023-09-27T02:58:49.545Z,21.13
2023-09-27T03:01:52.317Z,21.15
2023-09-27T03:04:55.183Z,21.12
2023-09-27T03:07:58.429Z,21.10
2023-09-27T03:11:06.074Z,21.08
2023-09-27T03:14:09.007Z,21.08
2023-09-27T03:17:12.339Z,21.05
2023-09-27T03:20:18.194Z,21.05
2023-09-27T03:23:21.570Z,21.07
2023-09-27T03:26:26.081Z,21.03
2023-09-27T03:29:28.953Z,21.02
2023-09-27T03:32:33.222Z,21.01
2023-09-27T03:35:36.440Z,21.02
2023-09-27T03:38:40.165Z,21.01
2023-09-27T03:41:44.352Z,20.97
2023-09-27T03:44:48.275Z,20.98
2023-09-27T03:47:51.298Z,20.96
2023-09-27T03:50:54.206Z,20.98
2023-09-27T03:53:57.974Z,20.97
2023-09-27T03:57:02.230Z,20.96
2023-09-27T04:00:08.509Z,20.94
2023-09-27T04:03:11.399Z,20.95
2023-09-27T04:06:14.293Z,20.95
2023-09-27T04:09:17.225Z,20.96
2023-09-27T04:12:21.434Z,20.94
2023-09-27T04:15:24.356Z,20.93
2023-09-27T04:18:27.199Z,20.94
2023-09-27T04:21:30.143Z,20.94
2023-09-27T04:24:33.192Z,20.94
2023-09-27T04:27:37.379Z,20.94
2023-09-27T04:30:40.226Z,20.93
2023-09-27T04:33:45.633Z,20.92
2023-09-27T04:36:48.452Z,20.95
2023-09-27T04:39:51.334Z,20.92
2023-09-27T04:42:55.600Z,20.96
2023-09-27T04:45:58.433Z,20.96
2023-09-27T04:49:01.371Z,20.99
2023-09-27T04:52:04.361Z,20.97
2023-09-27T04:55:08.473Z,20.98
2023-09-27T04:58:12.705Z,20.98
2023-09-27T05:01:15.555Z,21.00
2023-09-27T05:04:18.444Z,21.01
2023-09-27T05:07:21.501Z,21.04
2023-09-27T05:10:24.385Z,21.05
2023-09-27T05:13:28.776Z,21.04
2023-09-27T05:16:37.217Z,21.05
2023-09-27T05:19:40.037Z,21.07
2023-09-27T05:22:43.192Z,21.07
2023-09-27T05:25:46.319Z,21.09
2023-09-27T05:28:50.574Z,21.08
2023-09-27T05:31:53.663Z,21.11
2023-09-27T05:34:56.739Z,21.11
2023-09-27T05:38:00.285Z,21.12
2023-09-27T05:41:03.502Z,21.13
2023-09-27T05:44:08.175Z,21.12
2023-09-27T05:47:11.372Z,21.13
2023-09-27T05:50:14.829Z,21.16
2023-09-27T05:53:18.934Z,21.17
2023-09-27T05:56:21.829Z,21.19
2023-09-27T05:59:26.719Z,21.19
2023-09-27T06:02:32.877Z,21.20
2023-09-27T06:05:36.117Z,21.22
2023-09-27T06:08:38.978Z,21.23
2023-09-27T06:11:41.900Z,21.24
2023-09-27T06:14:46.186Z,21.25
2023-09-27T06:17:50.268Z,21.25
2023-09-27T06:20:53.479Z,21.25
2023-09-27T06:23:56.264Z,21.25
2023-09-27T06:26:59.310Z,21.26
2023-09-27T06:30:05.178Z,21.27
2023-09-27T06:33:08.059Z,21.28
2023-09-27T06:36:11.695Z,21.29
2023-09-27T06:39:14.807Z,21.32
2023-09-27T06:42:17.661Z,21.33
2023-09-27T06:45:22.080Z,21.34
2023-09-27T06:48:25.548Z,21.35
2023-09-27T06:51:28.546Z,21.37
2023-09-27T06:54:31.446Z,21.37
2023-09-27T06:57:34.285Z,21.37
2023-09-27T07:00:38.493Z,21.38
2023-09-27T07:03:41.635Z,21.41
2023-09-27T07:06:44.540Z,21.41
2023-09-27T07:09:47.412Z,21.44
2023-09-27T07:12:50.198Z,21.45
2023-09-27T07:15:55.681Z,21.45
2023-09-27T07:19:00.818Z,21.47
2023-09-27T07:22:09.483Z,21.46
2023-09-27T07:25:17.478Z,21.46
2023-09-27T07:28:20.351Z,21.47
2023-09-27T07:31:24.650Z,21.47
2023-09-27T07:34:27.897Z,21.47
2023-09-27T07:37:33.645Z,21.47
2023-09-27T07:40:36.541Z,21.47
2023-09-27T07:43:40.292Z,21.47
2023-09-27T07:46:45.585Z,21.47
2023-09-27T07:49:48.382Z,21.47
2023-09-27T07:52:51.217Z,21.48
2023-09-27T07:55:54.515Z,21.49
2023-09-27T07:58:57.831Z,21.48
2023-09-27T08:02:02.483Z,21.49
2023-09-27T08:05:10.645Z,21.50
2023-09-27T08:08:13.849Z,21.51
2023-09-27T08:11:18.221Z,21.50
2023-09-27T08:14:23.083Z,21.51
2023-09-27T08:17:27.699Z,21.50
2023-09-27T08:20:30.662Z,21.50
2023-09-27T08:23:33.860Z,21.52
2023-09-27T08:26:36.728Z,21.51
2023-09-27T08:29:39.668Z,21.52
2023-09-27T08:32:44.325Z,21.52
2023-09-27T08:35:48.013Z,21.51
2023-09-27T08:38:50.973Z,21.53
2023-09-27T08:41:56.207Z,21.54
2023-09-27T08:45:00.139Z,21.54
2023-09-27T08:48:05.933Z,21.57
2023-09-27T08:51:08.881Z,21.58
2023-09-27T08:54:13.334Z,21.58
2023-09-27T08:57:16.589Z,21.58
2023-09-27T09:00:23.112Z,21.60
2023-09-27T09:03:28.094Z,21.60
2023-09-27T09:06:31.304Z,21.60
2023-09-27T09:09:34.873Z,21.63
2023-09-27T09:12:39.240Z,21.63
2023-09-27T09:15:43.142Z,21.62
2023-09-27T09:18:49.242Z,21.64
2023-09-27T09:22:04.091Z,21.64
2023-09-27T09:25:07.914Z,21.65
2023-09-27T09:28:10.782Z,21.65
2023-09-27T09:31:23.017Z,21.68
2023-09-27T09:34:27.234Z,21.69
2023-09-27T09:37:31.066Z,21.70
2023-09-27T09:40:35.336Z,21.71
2023-09-27T09:43:38.676Z,21.73
2023-09-27T09:46:41.544Z,21.72
2023-09-27T09:52:55.057Z,21.73
2023-09-27T09:56:28.687Z,21.75
2023-09-27T09:59:27.416Z,21.77
2023-09-27T10:02:34.978Z,21.87
2023-09-27T10:05:40.202Z,21.92
2023-09-27T10:08:44.539Z,21.87
2023-09-27T10:11:49.170Z,21.96
2023-09-27T10:14:53.409Z,21.93
2023-09-27T10:18:16.994Z,21.89
2023-09-27T10:21:21.189Z,21.88
2023-09-27T10:24:28.324Z,21.88
2023-09-27T10:27:45.919Z,21.88
2023-09-27T10:31:13.450Z,21.91
2023-09-27T10:34:32.249Z,21.92
2023-09-27T10:37:53.969Z,21.93
2023-09-27T10:40:58.121Z,21.95
2023-09-27T10:44:01.322Z,21.97
2023-09-27T10:47:04.953Z,21.98
2023-09-27T10:50:08.234Z,22.04
2023-09-27T10:53:11.094Z,22.09
2023-09-27T10:56:16.593Z,22.17
2023-09-27T10:59:23.971Z,22.11
2023-09-27T11:02:30.307Z,22.09
2023-09-27T11:05:33.215Z,22.09
2023-09-27T11:08:36.134Z,22.09
2023-09-27T11:11:40.677Z,22.10
2023-09-27T11:14:45.577Z,22.10
2023-09-27T11:17:55.887Z,22.10
2023-09-27T11:21:10.671Z,22.11
2023-09-27T11:24:13.843Z,22.11
2023-09-27T11:27:20.780Z,22.14
2023-09-27T11:30:27.656Z,22.10
2023-09-27T11:33:35.065Z,22.09
2023-09-27T11:36:41.541Z,22.08
2023-09-27T11:39:52.023Z,22.07
2023-09-27T11:42:56.219Z,22.07
2023-09-27T11:45:59.402Z,22.06
2023-09-27T11:49:09.060Z,22.07
2023-09-27T11:52:12.668Z,22.08
2023-09-27T11:55:15.677Z,22.09
2023-09-27T11:58:19.917Z,22.23
2023-09-27T12:01:22.849Z,22.13
2023-09-27T12:04:25.908Z,22.10
2023-09-27T12:07:29.595Z,22.11
2023-09-27T12:10:32.642Z,22.12
2023-09-27T12:13:36.910Z,22.10
2023-09-27T12:16:39.826Z,22.13
2023-09-27T12:19:42.852Z,22.14
2023-09-27T12:22:45.761Z,22.15
2023-09-27T12:25:48.611Z,22.15
2023-09-27T12:28:52.796Z,22.19
2023-09-27T12:31:55.750Z,22.23
2023-09-27T12:34:58.619Z,22.22
2023-09-27T12:38:05.177Z,22.22
2023-09-27T12:41:09.411Z,22.23
2023-09-27T12:44:21.499Z,22.27
2023-09-27T12:47:25.416Z,22.31
2023-09-27T12:50:28.975Z,22.35
2023-09-27T12:53:32.028Z,22.35
2023-09-27T12:56:34.954Z,22.34
2023-09-27T12:59:39.240Z,22.33
2023-09-27T13:02:42.701Z,22.35
2023-09-27T13:05:45.722Z,22.34
2023-09-27T13:08:48.685Z,22.34
2023-09-27T13:11:51.567Z,22.34
2023-09-27T13:14:57.403Z,22.35
2023-09-27T13:18:00.553Z,22.37
2023-09-27T13:21:03.466Z,22.38
2023-09-27T13:24:06.738Z,22.39
2023-09-27T13:27:09.706Z,22.40
2023-09-27T13:30:25.667Z,22.40
2023-09-27T13:33:36.564Z,22.40
2023-09-27T13:36:40.632Z,22.41
2023-09-27T13:39:43.621Z,22.42
2023-09-27T13:42:46.399Z,22.42
2023-09-27T13:45:50.601Z,22.43
2023-09-27T13:48:53.612Z,22.43
2023-09-27T13:51:57.926Z,22.45
2023-09-27T13:55:00.807Z,22.46
2023-09-27T13:58:05.332Z,22.46
2023-09-27T14:01:10.424Z,22.47
2023-09-27T14:04:13.347Z,22.46
2023-09-27T14:07:16.404Z,22.46
2023-09-27T14:10:19.415Z,22.47
2023-09-27T14:13:22.263Z,22.48
2023-09-27T14:16:26.684Z,22.48
2023-09-27T14:19:29.999Z,22.48
2023-09-27T14:22:32.776Z,22.47
2023-09-27T14:25:36.037Z,22.46
2023-09-27T14:28:40.141Z,22.45
2023-09-27T14:31:45.545Z,22.43
2023-09-27T14:34:57.927Z,22.42
2023-09-27T14:38:01.258Z,22.43
2023-09-27T14:41:08.502Z,22.50
2023-09-27T14:44:11.652Z,22.52
2023-09-27T14:47:15.908Z,22.50
2023-09-27T14:50:18.816Z,22.48
2023-09-27T14:53:21.745Z,22.47
2023-09-27T14:56:24.637Z,22.46
2023-09-27T14:59:28.032Z,22.43
2023-09-27T15:02:32.322Z,22.45
2023-09-27T15:05:35.463Z,22.43
2023-09-27T15:08:38.898Z,22.43
2023-09-27T15:11:41.899Z,22.44
2023-09-27T15:14:45.082Z,22.46
2023-09-27T15:17:50.082Z,22.46
2023-09-27T15:20:52.945Z,22.47
2023-09-27T15:23:55.886Z,22.52
2023-09-27T15:26:58.924Z,22.54
2023-09-27T15:30:01.974Z,22.53
2023-09-27T15:33:06.642Z,22.50
2023-09-27T15:36:13.017Z,22.50
2023-09-27T15:39:18.322Z,22.50
2023-09-27T15:42:21.160Z,22.48
2023-09-27T15:45:24.526Z,22.46
2023-09-27T15:48:33.098Z,22.43
2023-09-27T15:51:38.058Z,22.46
2023-09-27T15:54:42.971Z,22.47
2023-09-27T15:57:46.182Z,22.43
2023-09-27T16:00:49.009Z,22.40
2023-09-27T16:03:53.449Z,22.41
2023-09-27T16:06:56.437Z,22.38
2023-09-27T16:09:59.315Z,22.40
2023-09-27T16:13:02.163Z,22.38
2023-09-27T16:16:06.073Z,22.39
2023-09-27T16:19:10.404Z,22.37
2023-09-27T16:22:13.227Z,22.37
2023-09-27T16:25:16.130Z,22.32
2023-09-27T16:28:20.172Z,22.35
2023-09-27T16:31:23.798Z,22.34
2023-09-27T16:34:29.367Z,22.32
2023-09-27T16:37:32.388Z,22.31
2023-09-27T16:40:35.303Z,22.27
2023-09-27T16:43:40.948Z,22.27
2023-09-27T16:46:43.999Z,22.30
2023-09-27T16:49:48.357Z,22.27
2023-09-27T16:52:51.229Z,22.28
2023-09-27T16:55:54.155Z,22.24
2023-09-27T16:58:57.363Z,22.23
2023-09-27T17:02:00.415Z,22.21
2023-09-27T17:05:05.370Z,22.21
2023-09-27T17:08:08.532Z,22.19
2023-09-27T17:11:11.462Z,22.23
2023-09-27T17:14:14.366Z,22.24
2023-09-27T17:17:17.200Z,22.22
2023-09-27T17:20:21.758Z,22.18
2023-09-27T17:23:24.670Z,22.17
2023-09-27T17:29:47.913Z,22.31
2023-09-27T17:32:50.818Z,22.33
2023-09-27T17:35:55.097Z,22.26
2023-09-27T17:38:59.373Z,22.25
2023-09-27T17:42:02.480Z,22.19
2023-09-27T17:45:05.728Z,22.17
2023-09-27T17:48:08.961Z,22.20
2023-09-27T17:51:14.575Z,22.17
2023-09-27T17:54:17.402Z,22.20
2023-09-27T17:57:20.569Z,22.26
2023-09-27T18:00:23.358Z,22.28
2023-09-27T18:03:26.336Z,22.27
2023-09-27T18:06:30.754Z,22.28
2023-09-27T18:09:35.748Z,22.25
2023-09-27T18:12:38.597Z,22.26
2023-09-27T18:15:41.533Z,22.29
2023-09-27T18:18:45.213Z,22.28
2023-09-27T18:21:50.089Z,22.28
2023-09-27T18:24:53.051Z,22.30
2023-09-27T18:27:57.110Z,22.30
2023-09-27T18:31:00.044Z,22.27
2023-09-27T18:34:02.901Z,22.29
2023-09-27T18:37:07.102Z,22.28
2023-09-27T18:40:10.402Z,22.31
2023-09-27T18:43:16.669Z,22.41
2023-09-27T18:46:20.265Z,22.37
2023-09-27T18:49:23.707Z,22.33
2023-09-27T18:52:27.955Z,22.31
2023-09-27T18:55:30.854Z,22.34
2023-09-27T18:58:33.760Z,22.31
2023-09-27T19:01:36.872Z,22.29
2023-09-27T19:04:39.776Z,22.31
2023-09-27T19:07:44.012Z,22.27
2023-09-27T19:10:48.115Z,22.26
2023-09-27T19:13:51.086Z,22.26
2023-09-27T19:16:54.353Z,22.26
2023-09-27T19:19:57.254Z,22.25
2023-09-27T19:23:01.900Z,22.25
2023-09-27T19:26:04.792Z,22.27
2023-09-27T19:29:07.688Z,22.24
2023-09-27T19:32:10.555Z,22.23
2023-09-27T19:35:15.731Z,22.22
2023-09-27T19:38:20.204Z,22.25
2023-09-27T19:41:29.060Z,22.21
2023-09-27T19:44:31.906Z,22.16
2023-09-27T19:47:36.504Z,22.19
2023-09-27T19:50:40.835Z,22.16
2023-09-27T19:53:47.485Z,22.13
2023-09-27T19:56:50.414Z,22.12
2023-09-27T19:59:53.435Z,22.11
2023-09-27T20:02:56.319Z,22.17
2023-09-27T20:05:59.186Z,22.15
2023-09-27T20:09:03.409Z,22.13
2023-09-27T20:12:06.472Z,22.10
2023-09-27T20:15:12.729Z,22.10
2023-09-27T20:18:15.576Z,22.10
2023-09-27T20:21:18.458Z,22.14
2023-09-27T20:24:22.729Z,22.13
2023-09-27T20:27:25.566Z,22.12
2023-09-27T20:30:28.476Z,22.09
2023-09-27T20:33:31.341Z,22.11
2023-09-27T20:36:34.237Z,22.14
2023-09-27T20:39:39.613Z,22.23
2023-09-27T20:42:42.455Z,22.23
2023-09-27T20:45:45.267Z,22.24
2023-09-27T20:48:48.374Z,22.27
2023-09-27T20:51:51.219Z,22.27
2023-09-27T20:54:55.460Z,22.21
2023-09-27T20:58:01.921Z,22.23
2023-09-27T21:01:08.253Z,22.22
2023-09-27T21:04:12.344Z,22.14
2023-09-27T21:07:15.210Z,22.24
2023-09-27T21:10:19.542Z,22.25
2023-09-27T21:13:22.431Z,22.22
2023-09-27T21:16:25.656Z,22.25
2023-09-27T21:19:28.605Z,22.20
2023-09-27T21:22:31.403Z,22.19
2023-09-27T21:25:35.744Z,22.27
2023-09-27T21:28:39.630Z,22.20
2023-09-27T21:31:43.481Z,22.19
2023-09-27T21:34:48.000Z,22.27
2023-09-27T21:37:52.027Z,22.20
2023-09-27T21:40:56.393Z,22.29
2023-09-27T21:43:59.298Z,22.23
2023-09-27T21:47:02.275Z,22.17
2023-09-27T21:50:07.122Z,22.14
2023-09-27T21:53:11.238Z,22.13
2023-09-27T21:56:15.891Z,22.14
2023-09-27T21:59:18.802Z,22.15
2023-09-27T22:02:21.622Z,22.12
2023-09-27T22:05:24.549Z,22.13
2023-09-27T22:08:27.325Z,22.12
2023-09-27T22:11:31.682Z,22.06
2023-09-27T22:14:36.414Z,22.05
2023-09-27T22:17:39.389Z,22.10
2023-09-27T22:20:45.853Z,22.10
2023-09-27T22:23:48.797Z,22.11
2023-09-27T22:26:54.301Z,22.12
2023-09-27T22:29:57.421Z,22.19
2023-09-27T22:33:04.573Z,22.10
2023-09-27T22:36:07.618Z,22.10
2023-09-27T22:39:12.594Z,22.08
2023-09-27T22:42:18.371Z,22.07
2023-09-27T22:45:31.715Z,22.08
2023-09-27T22:48:34.705Z,22.09
2023-09-27T22:51:39.991Z,22.06
2023-09-27T22:54:43.628Z,22.05
2023-09-27T22:57:50.228Z,22.06
2023-09-27T23:00:58.525Z,22.04
2023-09-27T23:04:01.646Z,22.00
2023-09-27T23:07:05.597Z,22.02
2023-09-27T23:10:13.235Z,22.00
2023-09-27T23:13:36.049Z,22.01
2023-09-27T23:16:47.074Z,22.00
2023-09-27T23:19:50.057Z,21.98
2023-09-27T23:22:58.047Z,21.97
2023-09-27T23:26:01.997Z,21.97
2023-09-27T23:29:20.126Z,21.96
2023-09-27T23:32:24.740Z,21.94
2023-09-27T23:35:31.241Z,21.95
2023-09-27T23:38:57.273Z,21.93
2023-09-27T23:42:03.047Z,21.92
2023-09-27T23:45:10.554Z,21.89
2023-09-27T23:48:13.569Z,21.91
2023-09-27T23:51:16.685Z,21.91
2023-09-27T23:54:19.506Z,21.87
2023-09-27T23:57:28.298Z,21.88
